Time;durP1;ratioP1;P1;durP2;ratioP2;P2;SDS_P1;SDS_P2;PMS_P1;PMS_P2;Temp;Humidity;BMP_temperature;BMP_pressure;BME280_temperature;BME280_humidity;BME280_pressure;Samples;Min_cycle;Max_cycle;Signal;HPM_P1;HPM_P2
2023/04/23 00:01:41;;;;;;;3.38;3.08;;;;;;;;;;5099272;28;20111;-59
2023/04/23 00:04:08;;;;;;;2.70;2.50;;;;;;;;;;5097119;28;20061;-59
2023/04/23 00:06:35;;;;;;;3.08;2.83;;;;;;;;;;5099120;28;20070;-59
2023/04/23 00:09:02;;;;;;;3.33;3.03;;;;;;;;;;5098497;28;20059;-59
2023/04/23 00:11:29;;;;;;;3.75;3.45;;;;;;;;;;5097352;28;20055;-59
2023/04/23 00:13:55;;;;;;;3.20;2.90;;;;;;;;;;5097111;28;20082;-59
2023/04/23 00:16:21;;;;;;;3.47;3.17;;;;;;;;;;5099000;28;20401;-59
2023/04/23 00:18:48;;;;;;;3.78;3.40;;;;;;;;;;5087793;28;20479;-60
2023/04/23 00:21:14;;;;;;;4.38;3.97;;;;;;;;;;5085337;28;20051;-59
2023/04/23 00:23:40;;;;;;;4.22;3.83;;;;;;;;;;5085654;28;20039;-59
2023/04/23 00:26:06;;;;;;;4.72;4.32;;;;;;;;;;5083785;28;20040;-59
2023/04/23 00:28:32;;;;;;;4.68;4.20;;;;;;;;;;5085492;28;20043;-59
2023/04/23 00:30:58;;;;;;;4.38;3.97;;;;;;;;;;5083641;28;20551;-59
2023/04/23 00:33:25;;;;;;;3.83;3.53;;;;;;;;;;5085466;28;20123;-59
2023/04/23 00:35:51;;;;;;;4.10;3.70;;;;;;;;;;5084327;28;20047;-62
2023/04/23 00:38:19;;;;;;;4.40;4.00;;;;;;;;;;5083245;28;20047;-60
2023/04/23 00:40:45;;;;;;;4.93;4.53;;;;;;;;;;5084410;28;20044;-59
2023/04/23 00:43:12;;;;;;;4.35;3.95;;;;;;;;;;5084122;28;20490;-60
2023/04/23 00:45:38;;;;;;;3.80;3.50;;;;;;;;;;5084279;28;20067;-60
2023/04/23 00:48:05;;;;;;;4.32;3.97;;;;;;;;;;5084463;28;20426;-60
2023/04/23 00:50:31;;;;;;;3.50;3.20;;;;;;;;;;5083589;28;20036;-60
2023/04/23 00:52:57;;;;;;;3.83;3.53;;;;;;;;;;5083361;28;20038;-60
2023/04/23 00:55:23;;;;;;;3.83;3.53;;;;;;;;;;5085136;28;20170;-60
2023/04/23 00:57:50;;;;;;;4.30;3.90;;;;;;;;;;5083024;28;20036;-61
2023/04/23 01:00:16;;;;;;;3.95;3.65;;;;;;;;;;5083532;28;20036;-60
2023/04/23 01:02:43;;;;;;;4.70;4.30;;;;;;;;;;5084711;28;20075;-60
2023/04/23 01:05:10;;;;;;;4.78;4.38;;;;;;;;;;5083625;28;20077;-60
2023/04/23 01:07:36;;;;;;;6.18;5.57;;;;;;;;;;5081037;28;20083;-60
2023/04/23 01:10:06;;;;;;;4.55;4.15;;;;;;;;;;5083887;28;20391;-60
2023/04/23 01:12:32;;;;;;;5.82;5.22;;;;;;;;;;5083809;28;20120;-60
2023/04/23 01:14:58;;;;;;;6.32;5.72;;;;;;;;;;5082349;28;20127;-59
2023/04/23 01:17:25;;;;;;;6.30;5.70;;;;;;;;;;5084673;28;20052;-60
2023/04/23 01:19:51;;;;;;;6.72;6.03;;;;;;;;;;5082576;28;20055;-60
2023/04/23 01:22:17;;;;;;;5.75;5.15;;;;;;;;;;5084234;28;20039;-60
2023/04/23 01:24:43;;;;;;;6.28;5.68;;;;;;;;;;5084445;28;20036;-62
2023/04/23 01:27:10;;;;;;;8.13;6.97;;;;;;;;;;5083128;28;20040;-60
2023/04/23 01:29:36;;;;;;;6.45;5.78;;;;;;;;;;5084362;28;20074;-60
2023/04/23 01:32:03;;;;;;;5.90;5.30;;;;;;;;;;5083094;28;20085;-60
2023/04/23 01:34:30;;;;;;;7.80;5.40;;;;;;;;;;5084070;28;20028;-60
2023/04/23 01:36:57;;;;;;;6.75;6.05;;;;;;;;;;5083293;28;20048;-60
2023/04/23 01:39:23;;;;;;;9.02;7.65;;;;;;;;;;5084301;28;20043;-60
2023/04/23 01:41:49;;;;;;;7.10;6.40;;;;;;;;;;5083152;28;20089;-60
2023/04/23 01:44:15;;;;;;;5.60;5.00;;;;;;;;;;5084041;28;20040;-59
2023/04/23 01:46:41;;;;;;;6.50;5.75;;;;;;;;;;5083603;28;20040;-60
2023/04/23 01:49:07;;;;;;;6.43;5.72;;;;;;;;;;5081614;28;20036;-60
2023/04/23 01:51:34;;;;;;;6.40;4.93;;;;;;;;;;5080865;28;20150;-60
2023/04/23 01:54:00;;;;;;;5.32;4.82;;;;;;;;;;5082604;28;20134;-59
2023/04/23 01:56:27;;;;;;;5.78;4.80;;;;;;;;;;5081662;28;20074;-59
2023/04/23 01:58:54;;;;;;;7.35;5.60;;;;;;;;;;5082442;28;20541;-60
2023/04/23 02:01:20;;;;;;;6.25;5.65;;;;;;;;;;5084159;28;20138;-59
2023/04/23 02:03:47;;;;;;;6.38;5.78;;;;;;;;;;5082677;28;20124;-59
2023/04/23 02:06:13;;;;;;;6.95;5.85;;;;;;;;;;5083257;28;20063;-60
2023/04/23 02:08:40;;;;;;;6.43;5.70;;;;;;;;;;5083425;28;20116;-60
2023/04/23 02:11:06;;;;;;;6.78;5.70;;;;;;;;;;5082323;28;20040;-59
2023/04/23 02:13:32;;;;;;;6.72;5.88;;;;;;;;;;5083865;28;20077;-59
2023/04/23 02:15:58;;;;;;;6.82;5.95;;;;;;;;;;5082723;28;20068;-60
2023/04/23 02:18:24;;;;;;;7.00;5.97;;;;;;;;;;5083177;28;20044;-60
2023/04/23 02:20:50;;;;;;;6.95;5.95;;;;;;;;;;5083297;28;20040;-60
2023/04/23 02:23:16;;;;;;;7.18;6.38;;;;;;;;;;5083013;28;20122;-59
2023/04/23 02:25:42;;;;;;;7.70;6.60;;;;;;;;;;5083014;28;20456;-60
2023/04/23 02:28:12;;;;;;;7.10;5.80;;;;;;;;;;5082662;28;20744;-60
2023/04/23 02:30:44;;;;;;;7.65;6.45;;;;;;;;;;5083132;28;20040;-59
2023/04/23 02:33:10;;;;;;;8.35;6.57;;;;;;;;;;5082662;28;20079;-60
2023/04/23 02:35:36;;;;;;;7.63;6.53;;;;;;;;;;5083283;28;20523;-60
2023/04/23 02:38:02;;;;;;;7.97;6.88;;;;;;;;;;5081302;28;20538;-60
2023/04/23 02:40:28;;;;;;;8.48;6.90;;;;;;;;;;5083117;28;20111;-60
2023/04/23 02:42:54;;;;;;;8.65;7.00;;;;;;;;;;5082288;28;20177;-60
2023/04/23 02:45:20;;;;;;;9.35;7.07;;;;;;;;;;5083081;28;20044;-60
2023/04/23 02:47:46;;;;;;;8.88;6.72;;;;;;;;;;5083381;28;20040;-60
2023/04/23 02:50:12;;;;;;;9.68;7.53;;;;;;;;;;5083656;28;20612;-60
2023/04/23 02:52:38;;;;;;;8.48;6.97;;;;;;;;;;5082485;28;20040;-60
2023/04/23 02:55:05;;;;;;;8.50;6.70;;;;;;;;;;5082004;28;20111;-60
2023/04/23 02:57:32;;;;;;;9.70;7.70;;;;;;;;;;5083049;28;20056;-60
2023/04/23 02:59:58;;;;;;;9.65;7.30;;;;;;;;;;5081001;28;20043;-60
2023/04/23 03:02:24;;;;;;;12.65;9.23;;;;;;;;;;5082587;28;20054;-59
2023/04/23 03:04:50;;;;;;;10.65;8.50;;;;;;;;;;5082584;28;20039;-60
2023/04/23 03:07:16;;;;;;;11.32;8.52;;;;;;;;;;5082191;28;20060;-60
2023/04/23 03:09:43;;;;;;;14.02;10.98;;;;;;;;;;5083161;28;20044;-60
2023/04/23 03:12:09;;;;;;;14.02;9.88;;;;;;;;;;5081434;28;20032;-60
2023/04/23 03:14:35;;;;;;;14.38;12.00;;;;;;;;;;5082921;28;20064;-60
2023/04/23 03:17:01;;;;;;;16.15;12.65;;;;;;;;;;5082178;28;20044;-60
2023/04/23 03:19:27;;;;;;;21.77;14.32;;;;;;;;;;5080492;28;20509;-60
2023/04/23 03:21:54;;;;;;;19.33;14.23;;;;;;;;;;5079337;28;20135;-60
2023/04/23 03:24:20;;;;;;;18.52;13.80;;;;;;;;;;5082107;28;20075;-60
2023/04/23 03:26:46;;;;;;;20.10;14.60;;;;;;;;;;5081374;28;20040;-60
2023/04/23 03:29:12;;;;;;;20.00;14.93;;;;;;;;;;5081389;28;20553;-60
2023/04/23 03:31:38;;;;;;;19.38;14.63;;;;;;;;;;5082590;28;20087;-60
2023/04/23 03:34:05;;;;;;;28.67;21.25;;;;;;;;;;5080090;28;20608;-60
2023/04/23 03:36:31;;;;;;;25.02;19.02;;;;;;;;;;5082226;28;20097;-60
2023/04/23 03:38:57;;;;;;;22.08;15.55;;;;;;;;;;5080937;28;20145;-60
2023/04/23 03:41:23;;;;;;;28.80;21.10;;;;;;;;;;5081011;28;20043;-59
2023/04/23 03:43:49;;;;;;;25.88;18.40;;;;;;;;;;5081656;28;20674;-60
2023/04/23 03:46:15;;;;;;;21.00;16.05;;;;;;;;;;5082255;28;20036;-60
2023/04/23 03:48:41;;;;;;;18.38;14.23;;;;;;;;;;5081772;28;20036;-60
2023/04/23 03:51:07;;;;;;;17.88;13.40;;;;;;;;;;5081768;28;20047;-59
2023/04/23 03:53:33;;;;;;;21.88;16.75;;;;;;;;;;5083724;28;20040;-60
2023/04/23 03:55:59;;;;;;;24.45;18.58;;;;;;;;;;5084183;28;20086;-60
2023/04/23 03:58:25;;;;;;;28.08;20.25;;;;;;;;;;5086189;28;20040;-60
2023/04/23 04:00:51;;;;;;;24.42;17.85;;;;;;;;;;5085352;28;20480;-60
2023/04/23 04:03:17;;;;;;;23.27;17.35;;;;;;;;;;5085579;28;20086;-60
2023/04/23 04:05:43;;;;;;;19.25;15.25;;;;;;;;;;5082446;28;20040;-60
2023/04/23 04:08:10;;;;;;;17.33;13.80;;;;;;;;;;5085165;28;20044;-60
2023/04/23 04:10:36;;;;;;;14.88;13.25;;;;;;;;;;5085063;28;20040;-60
2023/04/23 04:13:02;;;;;;;19.70;15.32;;;;;;;;;;5084673;28;20140;-60
2023/04/23 04:15:28;;;;;;;19.50;13.93;;;;;;;;;;5083936;28;20538;-60
2023/04/23 04:17:54;;;;;;;17.02;13.52;;;;;;;;;;5083581;28;20527;-60
2023/04/23 04:20:20;;;;;;;19.85;14.88;;;;;;;;;;5085127;28;20123;-60
2023/04/23 04:22:46;;;;;;;18.88;14.15;;;;;;;;;;5085017;28;20086;-60
2023/04/23 04:25:13;;;;;;;17.77;13.60;;;;;;;;;;5084678;28;20093;-60
2023/04/23 04:27:40;;;;;;;17.58;13.50;;;;;;;;;;5085656;28;20125;-60
2023/04/23 04:30:06;;;;;;;22.25;15.57;;;;;;;;;;5084354;28;20052;-60
2023/04/23 04:32:33;;;;;;;24.52;18.42;;;;;;;;;;5085731;28;20028;-60
2023/04/23 04:34:59;;;;;;;20.73;16.00;;;;;;;;;;5084262;28;20387;-60
2023/04/23 04:37:26;;;;;;;21.85;15.88;;;;;;;;;;5084778;28;20375;-60
2023/04/23 04:39:53;;;;;;;22.83;15.38;;;;;;;;;;5084769;28;20498;-60
2023/04/23 04:42:19;;;;;;;21.83;15.27;;;;;;;;;;5085218;28;20032;-60
2023/04/23 04:44:46;;;;;;;20.48;15.00;;;;;;;;;;5084583;28;20036;-60
2023/04/23 04:47:12;;;;;;;20.63;15.35;;;;;;;;;;5083677;28;20253;-60
2023/04/23 04:49:38;;;;;;;21.95;15.85;;;;;;;;;;5084900;28;20039;-60
2023/04/23 04:52:05;;;;;;;24.40;16.83;;;;;;;;;;5082425;28;20044;-60
2023/04/23 04:54:31;;;;;;;24.90;17.50;;;;;;;;;;5084405;28;20039;-60
2023/04/23 04:56:57;;;;;;;27.92;19.42;;;;;;;;;;5083864;28;20087;-60
2023/04/23 04:59:23;;;;;;;27.20;18.23;;;;;;;;;;5084257;28;20517;-60
2023/04/23 05:01:49;;;;;;;22.08;16.58;;;;;;;;;;5084350;28;20032;-60
2023/04/23 05:04:15;;;;;;;21.95;16.33;;;;;;;;;;5084589;28;20040;-60
2023/04/23 05:06:41;;;;;;;16.10;12.25;;;;;;;;;;5082712;28;20048;-60
2023/04/23 05:09:07;;;;;;;23.05;15.77;;;;;;;;;;5083089;28;20111;-60
2023/04/23 05:11:34;;;;;;;20.80;15.18;;;;;;;;;;5085151;28;20606;-60
2023/04/23 05:14:00;;;;;;;21.80;15.90;;;;;;;;;;5082980;28;21628;-61
2023/04/23 05:16:26;;;;;;;34.85;23.40;;;;;;;;;;5084781;28;20032;-60
2023/04/23 05:18:52;;;;;;;26.80;19.73;;;;;;;;;;5083524;28;20109;-61
2023/04/23 05:21:19;;;;;;;23.00;18.08;;;;;;;;;;5083561;28;20055;-60
2023/04/23 05:23:45;;;;;;;21.23;16.15;;;;;;;;;;5083622;28;20043;-60
2023/04/23 05:26:11;;;;;;;24.20;17.20;;;;;;;;;;5084079;28;20044;-60
2023/04/23 05:28:37;;;;;;;20.05;14.85;;;;;;;;;;5083896;28;20036;-60
2023/04/23 05:31:03;;;;;;;20.38;15.10;;;;;;;;;;5083356;28;20073;-60
2023/04/23 05:33:29;;;;;;;19.60;15.40;;;;;;;;;;5083453;28;20115;-60
2023/04/23 05:35:56;;;;;;;33.15;23.67;;;;;;;;;;5085460;28;20044;-60
2023/04/23 05:38:22;;;;;;;29.30;21.65;;;;;;;;;;5084523;28;20051;-60
2023/04/23 05:40:48;;;;;;;28.75;21.08;;;;;;;;;;5083406;28;20596;-60
2023/04/23 05:43:14;;;;;;;21.27;16.23;;;;;;;;;;5083420;28;20620;-60
2023/04/23 05:45:40;;;;;;;22.33;16.25;;;;;;;;;;5084298;28;20040;-60
2023/04/23 05:48:06;;;;;;;25.88;18.95;;;;;;;;;;5082703;28;20044;-60
2023/04/23 05:50:32;;;;;;;24.67;18.25;;;;;;;;;;5084529;28;20028;-60
2023/04/23 05:52:58;;;;;;;23.55;18.52;;;;;;;;;;5082305;28;20036;-60
2023/04/23 05:55:25;;;;;;;23.85;17.65;;;;;;;;;;5083102;28;20509;-60
2023/04/23 05:57:51;;;;;;;24.75;19.63;;;;;;;;;;5083095;28;20047;-60
2023/04/23 06:00:17;;;;;;;21.55;15.30;;;;;;;;;;5082617;28;20040;-60
2023/04/23 06:02:43;;;;;;;27.00;21.65;;;;;;;;;;5082877;28;20036;-60
2023/04/23 06:05:09;;;;;;;29.08;21.33;;;;;;;;;;5082584;28;20105;-60
2023/04/23 06:07:35;;;;;;;28.70;21.05;;;;;;;;;;5083252;28;20410;-59
2023/04/23 06:10:02;;;;;;;27.27;19.98;;;;;;;;;;5081780;28;20056;-60
2023/04/23 06:12:28;;;;;;;22.80;17.95;;;;;;;;;;5082358;28;20036;-60
2023/04/23 06:14:54;;;;;;;21.67;16.83;;;;;;;;;;5081957;28;20066;-60
2023/04/23 06:17:20;;;;;;;26.42;20.15;;;;;;;;;;5082471;28;20825;-60
2023/04/23 06:19:46;;;;;;;21.63;17.30;;;;;;;;;;5083348;28;20115;-60
2023/04/23 06:22:12;;;;;;;28.55;20.75;;;;;;;;;;5083818;28;20642;-60
2023/04/23 06:24:38;;;;;;;21.73;17.60;;;;;;;;;;5083034;28;20123;-60
2023/04/23 06:27:04;;;;;;;20.13;16.20;;;;;;;;;;5082370;28;20136;-60
2023/04/23 06:29:30;;;;;;;18.27;14.90;;;;;;;;;;5082536;28;20043;-59
2023/04/23 06:31:56;;;;;;;27.60;20.65;;;;;;;;;;5081889;28;20036;-60
2023/04/23 06:34:22;;;;;;;31.77;23.83;;;;;;;;;;5082342;28;20036;-60
2023/04/23 06:36:50;;;;;;;31.13;23.92;;;;;;;;;;5082652;28;20032;-60
2023/04/23 06:39:16;;;;;;;31.45;24.23;;;;;;;;;;5083400;28;20071;-60
2023/04/23 06:41:42;;;;;;;32.50;24.67;;;;;;;;;;5083149;28;20043;-60
2023/04/23 06:44:08;;;;;;;28.02;21.70;;;;;;;;;;5081286;28;20036;-60
2023/04/23 06:46:34;;;;;;;29.52;23.88;;;;;;;;;;5083198;28;20040;-60
2023/04/23 06:49:00;;;;;;;29.27;22.20;;;;;;;;;;5083052;28;20035;-60
2023/04/23 06:51:27;;;;;;;27.08;20.88;;;;;;;;;;5082107;28;20458;-60
2023/04/23 06:53:53;;;;;;;26.77;20.48;;;;;;;;;;5082129;28;20047;-60
2023/04/23 06:56:20;;;;;;;26.08;18.95;;;;;;;;;;5083047;28;20119;-60
2023/04/23 06:58:46;;;;;;;28.90;23.15;;;;;;;;;;5079436;28;20043;-60
2023/04/23 07:01:12;;;;;;;23.48;19.55;;;;;;;;;;5080132;28;20061;-60
2023/04/23 07:03:38;;;;;;;35.67;26.60;;;;;;;;;;5083658;28;20032;-60
2023/04/23 07:06:05;;;;;;;38.53;28.65;;;;;;;;;;5080855;28;20661;-60
2023/04/23 07:08:31;;;;;;;40.03;29.38;;;;;;;;;;5082794;28;20055;-60
2023/04/23 07:10:57;;;;;;;39.92;30.50;;;;;;;;;;5079846;28;20455;-60
2023/04/23 07:13:23;;;;;;;43.28;30.38;;;;;;;;;;5082375;28;20039;-60
2023/04/23 07:15:49;;;;;;;40.65;30.67;;;;;;;;;;5084372;28;20054;-60
2023/04/23 07:18:16;;;;;;;35.40;27.50;;;;;;;;;;5088110;28;20501;-60
2023/04/23 07:20:42;;;;;;;37.78;27.45;;;;;;;;;;5087280;28;20118;-60
2023/04/23 07:23:08;;;;;;;31.48;25.30;;;;;;;;;;5082639;28;20069;-60
2023/04/23 07:25:34;;;;;;;37.45;27.73;;;;;;;;;;5083617;28;20055;-61
2023/04/23 07:28:00;;;;;;;30.67;23.98;;;;;;;;;;5082249;28;20138;-60
2023/04/23 07:30:26;;;;;;;31.40;24.48;;;;;;;;;;5087317;28;20119;-60
2023/04/23 07:32:53;;;;;;;29.42;21.73;;;;;;;;;;5083785;28;20064;-60
2023/04/23 07:35:19;;;;;;;33.85;24.45;;;;;;;;;;5087179;28;20036;-61
2023/04/23 07:37:45;;;;;;;31.17;25.52;;;;;;;;;;5087461;28;20051;-60
2023/04/23 07:40:11;;;;;;;36.10;27.05;;;;;;;;;;5086220;28;20454;-64
2023/04/23 07:42:38;;;;;;;31.30;24.20;;;;;;;;;;5087341;28;20028;-60
2023/04/23 07:45:04;;;;;;;31.83;25.55;;;;;;;;;;5087940;28;20040;-60
2023/04/23 07:47:31;;;;;;;33.08;25.08;;;;;;;;;;5087190;28;20158;-61
2023/04/23 07:49:57;;;;;;;36.97;27.98;;;;;;;;;;5078143;28;20191;-59
2023/04/23 07:52:23;;;;;;;32.92;26.73;;;;;;;;;;5088620;28;20040;-59
2023/04/23 07:54:49;;;;;;;35.42;27.85;;;;;;;;;;5078746;28;20442;-59
2023/04/23 07:57:15;;;;;;;34.20;27.58;;;;;;;;;;5087689;28;20391;-60
2023/04/23 07:59:41;;;;;;;31.23;23.92;;;;;;;;;;5083455;28;20055;-60
2023/04/23 08:02:08;;;;;;;33.55;26.38;;;;;;;;;;5084741;28;20075;-60
2023/04/23 08:04:34;;;;;;;30.17;23.88;;;;;;;;;;5086571;28;20039;-61
2023/04/23 08:07:00;;;;;;;27.98;23.33;;;;;;;;;;5086513;28;20056;-63
2023/04/23 08:09:26;;;;;;;25.23;21.02;;;;;;;;;;5086707;28;20043;-57
2023/04/23 08:11:52;;;;;;;30.13;22.83;;;;;;;;;;5086864;28;20044;-59
2023/04/23 08:14:18;;;;;;;34.72;27.60;;;;;;;;;;5087262;28;20122;-59
2023/04/23 08:16:44;;;;;;;32.67;25.30;;;;;;;;;;5086769;28;20063;-63
2023/04/23 08:19:10;;;;;;;28.00;23.52;;;;;;;;;;5086601;28;20032;-60
2023/04/23 08:21:36;;;;;;;32.40;24.90;;;;;;;;;;5086025;28;20101;-59
2023/04/23 08:24:03;;;;;;;25.45;21.52;;;;;;;;;;5085590;28;20560;-59
2023/04/23 08:26:29;;;;;;;33.42;26.13;;;;;;;;;;5087597;28;20040;-59
2023/04/23 08:28:56;;;;;;;27.58;22.38;;;;;;;;;;5086964;28;20533;-57
2023/04/23 08:31:22;;;;;;;27.00;21.90;;;;;;;;;;5085879;28;20040;-61
2023/04/23 08:33:48;;;;;;;28.48;23.95;;;;;;;;;;5087283;28;20047;-61
2023/04/23 08:36:14;;;;;;;25.00;21.98;;;;;;;;;;5085985;28;20117;-61
2023/04/23 08:38:40;;;;;;;24.45;21.02;;;;;;;;;;5085318;28;20115;-61
2023/04/23 08:41:09;;;;;;;21.83;17.73;;;;;;;;;;5085009;28;20563;-61
2023/04/23 08:43:44;;;;;;;22.02;18.30;;;;;;;;;;5084719;28;20490;-61
2023/04/23 08:46:13;;;;;;;27.30;21.98;;;;;;;;;;5085138;28;20040;-62
2023/04/23 08:48:40;;;;;;;23.65;19.15;;;;;;;;;;5082716;28;20075;-60
2023/04/23 08:51:08;;;;;;;22.30;19.23;;;;;;;;;;5084138;28;20039;-59
2023/04/23 08:53:35;;;;;;;20.02;16.55;;;;;;;;;;5085780;28;20093;-58
2023/04/23 08:56:02;;;;;;;19.25;16.70;;;;;;;;;;5084132;28;20075;-59
2023/04/23 08:58:29;;;;;;;22.05;18.90;;;;;;;;;;5083660;28;20482;-59
2023/04/23 09:00:56;;;;;;;21.30;18.85;;;;;;;;;;5081689;28;20036;-59
2023/04/23 09:03:23;;;;;;;25.40;20.33;;;;;;;;;;5094293;28;20112;-59
2023/04/23 09:05:52;;;;;;;23.02;18.67;;;;;;;;;;5089244;28;20528;-59
2023/04/23 09:08:20;;;;;;;22.33;17.67;;;;;;;;;;5084863;28;20463;-59
2023/04/23 09:10:46;;;;;;;16.27;14.52;;;;;;;;;;5083259;28;20036;-59
2023/04/23 09:13:13;;;;;;;16.52;14.23;;;;;;;;;;5085719;28;20222;-59
2023/04/23 09:15:42;;;;;;;16.98;13.52;;;;;;;;;;5088915;28;20068;-59
2023/04/23 09:18:08;;;;;;;16.52;14.68;;;;;;;;;;5083577;28;20127;-60
2023/04/23 09:20:34;;;;;;;13.82;12.32;;;;;;;;;;5084620;28;20074;-59
2023/04/23 09:23:01;;;;;;;15.40;12.88;;;;;;;;;;5084174;28;20047;-59
2023/04/23 09:25:27;;;;;;;17.20;14.38;;;;;;;;;;5084668;28;20044;-59
2023/04/23 09:27:53;;;;;;;17.67;14.25;;;;;;;;;;5084458;28;20075;-60
2023/04/23 09:30:20;;;;;;;12.88;11.52;;;;;;;;;;5085252;28;20066;-59
2023/04/23 09:32:46;;;;;;;11.05;9.95;;;;;;;;;;5083967;28;20583;-59
2023/04/23 09:35:16;;;;;;;13.32;11.43;;;;;;;;;;5084204;28;20555;-60
2023/04/23 09:37:47;;;;;;;11.98;10.70;;;;;;;;;;5084940;28;20055;-60
2023/04/23 09:40:13;;;;;;;13.43;11.30;;;;;;;;;;5080727;28;20343;-60
2023/04/23 09:42:39;;;;;;;12.93;10.88;;;;;;;;;;5084438;28;20036;-58
2023/04/23 09:45:06;;;;;;;15.75;12.15;;;;;;;;;;5083771;28;20407;-57
2023/04/23 09:47:38;;;;;;;11.65;10.18;;;;;;;;;;5082289;28;20036;-59
2023/04/23 09:50:04;;;;;;;18.77;12.60;;;;;;;;;;5083482;28;20051;-59
2023/04/23 09:52:31;;;;;;;13.25;11.50;;;;;;;;;;5084331;28;20098;-62
2023/04/23 09:54:58;;;;;;;10.80;8.98;;;;;;;;;;5084093;28;20045;-62
2023/04/23 09:57:27;;;;;;;11.65;10.05;;;;;;;;;;5085432;28;20085;-60
2023/04/23 09:59:56;;;;;;;11.02;9.93;;;;;;;;;;5084580;28;20047;-64
2023/04/23 10:02:27;;;;;;;9.25;7.63;;;;;;;;;;5084568;28;20039;-59
2023/04/23 10:04:53;;;;;;;12.77;11.15;;;;;;;;;;5084591;28;20036;-60
2023/04/23 10:07:19;;;;;;;10.93;9.82;;;;;;;;;;5085220;28;20048;-59
2023/04/23 10:09:46;;;;;;;12.43;9.88;;;;;;;;;;5080337;28;20039;-59
2023/04/23 10:12:13;;;;;;;9.55;8.07;;;;;;;;;;5084616;28;20351;-57
2023/04/23 10:14:39;;;;;;;12.45;9.07;;;;;;;;;;5084098;28;20123;-57
2023/04/23 10:17:06;;;;;;;10.48;7.97;;;;;;;;;;5084602;28;20055;-56
2023/04/23 10:19:32;;;;;;;5.88;5.28;;;;;;;;;;5087574;28;20035;-57
2023/04/23 10:22:04;;;;;;;9.02;8.02;;;;;;;;;;5092611;28;20070;-57
2023/04/23 10:24:30;;;;;;;;;;;;;;;;;;5080875;28;20043;-60
2023/04/23 10:26:59;;;;;;;8.98;6.40;;;;;;;;;;5084111;28;19924;-58
2023/04/23 10:29:30;;;;;;;6.40;5.22;;;;;;;;;;5085295;28;20066;-61
2023/04/23 10:31:57;;;;;;;4.95;3.70;;;;;;;;;;5082015;28;20123;-62
2023/04/23 10:34:24;;;;;;;5.90;4.57;;;;;;;;;;5085034;28;20542;-62
2023/04/23 10:36:51;;;;;;;7.32;3.90;;;;;;;;;;5083877;28;20494;-62
2023/04/23 10:39:18;;;;;;;6.40;4.65;;;;;;;;;;5084259;28;20047;-62
2023/04/23 10:41:44;;;;;;;8.70;4.72;;;;;;;;;;5084305;28;20423;-62
2023/04/23 10:44:11;;;;;;;6.53;4.43;;;;;;;;;;5083745;28;20175;-62
2023/04/23 10:46:37;;;;;;;7.32;4.13;;;;;;;;;;5085234;28;20047;-62
2023/04/23 10:49:06;;;;;;;6.25;4.03;;;;;;;;;;5084164;28;20119;-65
2023/04/23 10:51:33;;;;;;;5.60;4.32;;;;;;;;;;5084698;28;20043;-65
2023/04/23 10:53:59;;;;;;;8.05;4.75;;;;;;;;;;5083904;28;20040;-65
2023/04/23 10:56:27;;;;;;;4.95;3.80;;;;;;;;;;5084532;28;21043;-65
2023/04/23 10:58:53;;;;;;;9.98;4.97;;;;;;;;;;5082914;28;20055;-65
2023/04/23 11:01:20;;;;;;;5.03;4.05;;;;;;;;;;5085265;28;20036;-68
2023/04/23 11:03:47;;;;;;;8.02;3.90;;;;;;;;;;5084540;28;20059;-66
2023/04/23 11:06:42;;;;;;;5.75;3.63;;;;;;;;;;5083464;28;20128;-63
2023/04/23 11:09:27;;;;;;;7.35;3.22;;;;;;;;;;5082852;28;20115;-63
2023/04/23 11:11:55;;;;;;;9.25;2.83;;;;;;;;;;5079872;28;20043;-65
2023/04/23 11:14:32;;;;;;;2.90;2.67;;;;;;;;;;5084606;28;20443;-66
2023/04/23 11:16:58;;;;;;;4.38;2.67;;;;;;;;;;5084144;28;20039;-65
2023/04/23 11:19:24;;;;;;;4.78;2.45;;;;;;;;;;5081932;28;20036;-63
2023/04/23 11:21:59;;;;;;;7.30;2.67;;;;;;;;;;5083190;28;20417;-65
2023/04/23 11:24:32;;;;;;;4.80;1.83;;;;;;;;;;5079839;28;20048;-63
2023/04/23 11:26:58;;;;;;;6.35;2.85;;;;;;;;;;5079047;28;20040;-63
2023/04/23 11:29:26;;;;;;;6.85;2.38;;;;;;;;;;5082400;28;20300;-63
2023/04/23 11:31:52;;;;;;;3.67;2.20;;;;;;;;;;5081326;28;20036;-64
2023/04/23 11:34:19;;;;;;;4.53;1.83;;;;;;;;;;5082770;28;20474;-63
2023/04/23 11:36:46;;;;;;;4.10;1.50;;;;;;;;;;5083167;28;20076;-64
2023/04/23 11:39:12;;;;;;;5.57;1.80;;;;;;;;;;5083157;28;20043;-64
2023/04/23 11:41:38;;;;;;;5.93;1.65;;;;;;;;;;5084633;28;20105;-65
2023/04/23 11:44:05;;;;;;;3.30;1.65;;;;;;;;;;5084379;28;20097;-63
2023/04/23 11:46:31;;;;;;;2.13;1.50;;;;;;;;;;5084913;28;20062;-64
2023/04/23 11:48:59;;;;;;;3.10;1.63;;;;;;;;;;5084375;28;20036;-64
2023/04/23 11:51:26;;;;;;;2.40;1.38;;;;;;;;;;5090258;28;20498;-64
2023/04/23 11:53:52;;;;;;;2.85;1.38;;;;;;;;;;5089650;28;20111;-63
2023/04/23 11:56:22;;;;;;;3.58;1.45;;;;;;;;;;5082878;28;20345;-63
2023/04/23 11:58:57;;;;;;;5.40;1.40;;;;;;;;;;5085000;28;20047;-64
2023/04/23 12:01:23;;;;;;;2.92;1.20;;;;;;;;;;5079684;28;20444;-64
2023/04/23 12:03:49;;;;;;;3.83;1.40;;;;;;;;;;5084527;28;20036;-63
2023/04/23 12:06:17;;;;;;;3.92;1.60;;;;;;;;;;5084021;28;20052;-61
2023/04/23 12:08:45;;;;;;;2.72;1.38;;;;;;;;;;5083586;28;20050;-62
2023/04/23 12:11:12;;;;;;;3.28;1.45;;;;;;;;;;5083648;28;20052;-62
2023/04/23 12:13:40;;;;;;;4.07;1.20;;;;;;;;;;5082101;28;20044;-63
2023/04/23 12:16:06;;;;;;;4.40;1.40;;;;;;;;;;5086578;28;20052;-62
2023/04/23 12:18:37;;;;;;;6.93;1.50;;;;;;;;;;5087506;28;20514;-63
2023/04/23 12:21:11;;;;;;;6.13;2.10;;;;;;;;;;5087004;28;20040;-62
2023/04/23 12:23:38;;;;;;;4.90;1.52;;;;;;;;;;5088222;28;20490;-63
2023/04/23 12:26:05;;;;;;;2.45;1.20;;;;;;;;;;5087672;28;20059;-63
2023/04/23 12:28:31;;;;;;;3.05;0.98;;;;;;;;;;5087646;28;20626;-67
2023/04/23 12:31:01;;;;;;;4.22;1.02;;;;;;;;;;5090060;28;20115;-65
2023/04/23 12:33:31;;;;;;;3.30;1.13;;;;;;;;;;5088086;28;20039;-64
2023/04/23 12:35:58;;;;;;;2.03;0.73;;;;;;;;;;5085282;28;20053;-63
2023/04/23 12:38:28;;;;;;;2.25;1.00;;;;;;;;;;5087775;28;20043;-60
2023/04/23 12:40:55;;;;;;;3.03;0.90;;;;;;;;;;5088718;28;20047;-63
2023/04/23 12:43:21;;;;;;;1.35;0.85;;;;;;;;;;5096266;22;20509;-62
2023/04/23 12:45:48;;;;;;;2.10;1.05;;;;;;;;;;5031601;28;20615;-62
2023/04/23 12:48:14;;;;;;;3.55;1.13;;;;;;;;;;5049358;28;20123;-63
2023/04/23 12:50:40;;;;;;;3.33;1.30;;;;;;;;;;5026463;28;20052;-62
2023/04/23 12:53:06;;;;;;;4.05;1.70;;;;;;;;;;5048697;28;20053;-62
2023/04/23 12:55:33;;;;;;;2.13;0.98;;;;;;;;;;5031008;28;20041;-62
2023/04/23 12:57:59;;;;;;;4.47;1.35;;;;;;;;;;5048137;28;20116;-63
2023/04/23 13:00:26;;;;;;;4.28;0.85;;;;;;;;;;5048983;28;20044;-63
2023/04/23 13:02:52;;;;;;;1.48;1.10;;;;;;;;;;5031152;28;20057;-63
2023/04/23 13:05:18;;;;;;;4.28;1.38;;;;;;;;;;5031157;28;20049;-63
2023/04/23 13:07:44;;;;;;;4.93;1.10;;;;;;;;;;5031042;28;20074;-62
2023/04/23 13:10:10;;;;;;;3.50;1.20;;;;;;;;;;5040671;28;20045;-63
2023/04/23 13:12:36;;;;;;;1.90;0.60;;;;;;;;;;5045787;28;20059;-63
2023/04/23 13:15:03;;;;;;;4.40;1.15;;;;;;;;;;5028052;28;20045;-63
2023/04/23 13:17:30;;;;;;;4.53;1.40;;;;;;;;;;5028213;28;20082;-63
2023/04/23 13:19:57;;;;;;;4.68;1.20;;;;;;;;;;5031274;28;20076;-62
2023/04/23 13:22:27;;;;;;;3.15;0.95;;;;;;;;;;5047557;28;20052;-62
2023/04/23 13:24:55;;;;;;;1.33;0.93;;;;;;;;;;5023862;28;20051;-62
2023/04/23 13:27:22;;;;;;;2.15;0.75;;;;;;;;;;5030713;28;20182;-63
2023/04/23 13:29:47;;;;;;;3.40;1.00;;;;;;;;;;5046341;28;20131;-62
2023/04/23 13:32:15;;;;;;;0.95;0.63;;;;;;;;;;5026683;28;20182;-62
2023/04/23 13:34:41;;;;;;;2.33;1.13;;;;;;;;;;5044839;28;20044;-62
2023/04/23 13:37:08;;;;;;;2.83;1.30;;;;;;;;;;5026897;28;20131;-62
2023/04/23 13:39:37;;;;;;;4.25;1.20;;;;;;;;;;5027670;28;20160;-62
2023/04/23 13:42:03;;;;;;;2.88;0.70;;;;;;;;;;5044001;28;20052;-63
2023/04/23 13:44:32;;;;;;;2.35;0.90;;;;;;;;;;5031552;28;20053;-62
2023/04/23 13:46:58;;;;;;;1.83;0.75;;;;;;;;;;5030048;28;20060;-62
2023/04/23 13:49:25;;;;;;;3.38;0.90;;;;;;;;;;5048537;28;20525;-63
2023/04/23 13:51:53;;;;;;;1.00;0.50;;;;;;;;;;5047732;28;20044;-63
2023/04/23 13:54:19;;;;;;;2.88;1.08;;;;;;;;;;5029822;28;20142;-63
2023/04/23 13:56:45;;;;;;;2.00;0.95;;;;;;;;;;5048101;28;20056;-63
2023/04/23 13:59:11;;;;;;;2.72;1.17;;;;;;;;;;5048299;28;20056;-63
2023/04/23 14:01:38;;;;;;;0.60;0.50;;;;;;;;;;5047082;28;20052;-63
2023/04/23 14:04:04;;;;;;;1.95;0.77;;;;;;;;;;5047676;28;20375;-63
2023/04/23 14:06:30;;;;;;;1.83;0.70;;;;;;;;;;5048072;28;20142;-63
2023/04/23 14:08:56;;;;;;;1.63;0.77;;;;;;;;;;5046970;28;20060;-63
2023/04/23 14:11:22;;;;;;;1.88;0.70;;;;;;;;;;5029711;28;20049;-62
2023/04/23 14:13:48;;;;;;;1.80;0.50;;;;;;;;;;5046850;28;20106;-62
2023/04/23 14:16:14;;;;;;;1.73;0.77;;;;;;;;;;5029409;28;20411;-62
2023/04/23 14:18:40;;;;;;;2.92;1.15;;;;;;;;;;5047758;28;20404;-62
2023/04/23 14:21:06;;;;;;;2.83;0.93;;;;;;;;;;5046835;28;20855;-62
2023/04/23 14:23:35;;;;;;;2.20;0.80;;;;;;;;;;5048047;28;20041;-62
2023/04/23 14:26:04;;;;;;;2.47;0.77;;;;;;;;;;5029511;28;20053;-62
2023/04/23 14:28:35;;;;;;;1.92;0.82;;;;;;;;;;5047226;28;20059;-62